Thunder Ridge (Littleton), Colorado
Current Conditions -  °F | °C
As of 8:53 PM on Sunday 23 Nov 2014 (Local Time) from KAPA Reporting Station
Few Clouds Few Clouds  
Wind Chill: 18°   Ceiling: Unl
Heat Index: 29°   Visibility: 10mi
Dew Point:   Wind: 14mph
Humidity: 43%   Direction: 290°WNW
Pressure: 29.88"   Gusts: NA
Location:  39.53461°N, 105.0094°W
Report Text: KAPA 240353Z 29012KT 10SM FEW110 M02/M13 A2988 RMK AO2 SLP145 T10171128
Loading
Personal Weather Stations






























Interactive Weather Map New forecast layout! Learn more

10-Day Weather Forecast

Advertisements
Track Severe Weather on mobile